sensor_id;sensor_type;location;lat;lon;timestamp;P1;durP1;ratioP1;P2;durP2;ratioP2
5752;SDS011;2901;42.140;24.760;2022-12-29T00:01:20;15.70;;;10.43;;
5752;SDS011;2901;42.140;24.760;2022-12-29T00:03:46;12.20;;;10.77;;
5752;SDS011;2901;42.140;24.760;2022-12-29T00:06:11;15.07;;;9.77;;
5752;SDS011;2901;42.140;24.760;2022-12-29T00:08:37;10.60;;;9.80;;
5752;SDS011;2901;42.140;24.760;2022-12-29T00:11:09;18.90;;;10.67;;
5752;SDS011;2901;42.140;24.760;2022-12-29T00:13:35;12.27;;;10.50;;
5752;SDS011;2901;42.140;24.760;2022-12-29T00:16:19;15.23;;;10.30;;
5752;SDS011;2901;42.140;24.760;2022-12-29T00:18:45;14.50;;;9.17;;
5752;SDS011;2901;42.140;24.760;2022-12-29T00:21:15;12.23;;;9.97;;
5752;SDS011;2901;42.140;24.760;2022-12-29T00:24:03;9.33;;;7.77;;
5752;SDS011;2901;42.140;24.760;2022-12-29T00:29:45;15.80;;;11.70;;
5752;SDS011;2901;42.140;24.760;2022-12-29T00:32:29;15.57;;;12.10;;
5752;SDS011;2901;42.140;24.760;2022-12-29T00:35:15;16.20;;;10.67;;
5752;SDS011;2901;42.140;24.760;2022-12-29T00:37:50;12.13;;;10.23;;
5752;SDS011;2901;42.140;24.760;2022-12-29T00:40:34;13.23;;;10.63;;
5752;SDS011;2901;42.140;24.760;2022-12-29T00:43:18;18.27;;;12.57;;
5752;SDS011;2901;42.140;24.760;2022-12-29T00:46:02;19.60;;;12.13;;
5752;SDS011;2901;42.140;24.760;2022-12-29T00:48:28;20.90;;;13.13;;
5752;SDS011;2901;42.140;24.760;2022-12-29T00:51:12;13.87;;;12.50;;
5752;SDS011;2901;42.140;24.760;2022-12-29T00:53:37;15.90;;;12.07;;
5752;SDS011;2901;42.140;24.760;2022-12-29T00:56:03;16.37;;;12.53;;
5752;SDS011;2901;42.140;24.760;2022-12-29T00:58:29;15.53;;;11.53;;
5752;SDS011;2901;42.140;24.760;2022-12-29T01:01:04;15.93;;;11.40;;
5752;SDS011;2901;42.140;24.760;2022-12-29T01:03:31;13.13;;;11.20;;
5752;SDS011;2901;42.140;24.760;2022-12-29T01:06:06;15.43;;;10.43;;
5752;SDS011;2901;42.140;24.760;2022-12-29T01:08:33;19.77;;;10.67;;
5752;SDS011;2901;42.140;24.760;2022-12-29T01:11:02;16.53;;;10.50;;
5752;SDS011;2901;42.140;24.760;2022-12-29T01:13:29;12.00;;;10.40;;
5752;SDS011;2901;42.140;24.760;2022-12-29T01:15:55;11.40;;;10.33;;
5752;SDS011;2901;42.140;24.760;2022-12-29T01:18:21;15.83;;;12.20;;
5752;SDS011;2901;42.140;24.760;2022-12-29T01:20:48;16.77;;;11.93;;
5752;SDS011;2901;42.140;24.760;2022-12-29T01:23:13;16.00;;;12.27;;
5752;SDS011;2901;42.140;24.760;2022-12-29T01:25:38;16.87;;;11.60;;
5752;SDS011;2901;42.140;24.760;2022-12-29T01:28:04;17.90;;;12.90;;
5752;SDS011;2901;42.140;24.760;2022-12-29T01:30:29;18.17;;;12.00;;
5752;SDS011;2901;42.140;24.760;2022-12-29T01:32:55;19.80;;;13.23;;
5752;SDS011;2901;42.140;24.760;2022-12-29T01:35:20;14.03;;;11.73;;
5752;SDS011;2901;42.140;24.760;2022-12-29T01:37:46;15.93;;;12.47;;
5752;SDS011;2901;42.140;24.760;2022-12-29T01:40:11;22.50;;;12.87;;
5752;SDS011;2901;42.140;24.760;2022-12-29T01:42:37;13.07;;;11.63;;
5752;SDS011;2901;42.140;24.760;2022-12-29T01:45:03;13.87;;;11.03;;
5752;SDS011;2901;42.140;24.760;2022-12-29T01:50:26;13.10;;;10.30;;
5752;SDS011;2901;42.140;24.760;2022-12-29T01:53:03;19.27;;;10.87;;
5752;SDS011;2901;42.140;24.760;2022-12-29T01:55:33;13.67;;;11.33;;
5752;SDS011;2901;42.140;24.760;2022-12-29T01:58:03;14.50;;;11.98;;
5752;SDS011;2901;42.140;24.760;2022-12-29T02:00:31;19.38;;;12.80;;
5752;SDS011;2901;42.140;24.760;2022-12-29T02:02:57;13.57;;;12.20;;
5752;SDS011;2901;42.140;24.760;2022-12-29T02:05:30;15.30;;;11.57;;
5752;SDS011;2901;42.140;24.760;2022-12-29T02:08:11;18.08;;;11.93;;
5752;SDS011;2901;42.140;24.760;2022-12-29T02:10:37;15.73;;;11.00;;
5752;SDS011;2901;42.140;24.760;2022-12-29T02:13:05;14.77;;;11.47;;
5752;SDS011;2901;42.140;24.760;2022-12-29T02:26:26;15.02;;;13.43;;
5752;SDS011;2901;42.140;24.760;2022-12-29T02:32:07;13.53;;;12.13;;
5752;SDS011;2901;42.140;24.760;2022-12-29T02:37:53;18.80;;;12.73;;
5752;SDS011;2901;42.140;24.760;2022-12-29T02:40:28;13.00;;;11.73;;
5752;SDS011;2901;42.140;24.760;2022-12-29T02:43:05;14.07;;;12.57;;
5752;SDS011;2901;42.140;24.760;2022-12-29T02:45:58;14.27;;;11.90;;
5752;SDS011;2901;42.140;24.760;2022-12-29T02:51:09;18.98;;;14.27;;
5752;SDS011;2901;42.140;24.760;2022-12-29T02:53:40;20.87;;;13.83;;
5752;SDS011;2901;42.140;24.760;2022-12-29T02:56:24;20.57;;;13.67;;
5752;SDS011;2901;42.140;24.760;2022-12-29T02:58:50;14.47;;;13.00;;
5752;SDS011;2901;42.140;24.760;2022-12-29T03:04:31;18.08;;;13.32;;
5752;SDS011;2901;42.140;24.760;2022-12-29T03:07:18;22.05;;;14.52;;
5752;SDS011;2901;42.140;24.760;2022-12-29T03:09:58;21.47;;;14.17;;
5752;SDS011;2901;42.140;24.760;2022-12-29T03:12:35;22.77;;;15.07;;
5752;SDS011;2901;42.140;24.760;2022-12-29T03:15:33;19.85;;;14.77;;
5752;SDS011;2901;42.140;24.760;2022-12-29T03:21:27;21.90;;;14.05;;
5752;SDS011;2901;42.140;24.760;2022-12-29T03:24:25;17.93;;;13.47;;
5752;SDS011;2901;42.140;24.760;2022-12-29T03:26:55;24.27;;;15.47;;
5752;SDS011;2901;42.140;24.760;2022-12-29T03:29:23;21.93;;;15.10;;
5752;SDS011;2901;42.140;24.760;2022-12-29T03:31:49;24.20;;;14.83;;
5752;SDS011;2901;42.140;24.760;2022-12-29T03:34:18;20.10;;;16.20;;
5752;SDS011;2901;42.140;24.760;2022-12-29T03:36:54;25.90;;;17.97;;
5752;SDS011;2901;42.140;24.760;2022-12-29T03:39:24;24.50;;;15.20;;
5752;SDS011;2901;42.140;24.760;2022-12-29T03:41:51;24.80;;;16.53;;
5752;SDS011;2901;42.140;24.760;2022-12-29T03:44:30;21.00;;;14.50;;
5752;SDS011;2901;42.140;24.760;2022-12-29T03:46:57;22.70;;;13.83;;
5752;SDS011;2901;42.140;24.760;2022-12-29T03:49:23;31.10;;;14.70;;
5752;SDS011;2901;42.140;24.760;2022-12-29T03:51:48;27.80;;;13.93;;
5752;SDS011;2901;42.140;24.760;2022-12-29T03:54:13;29.30;;;15.63;;
5752;SDS011;2901;42.140;24.760;2022-12-29T03:56:39;32.23;;;15.00;;
5752;SDS011;2901;42.140;24.760;2022-12-29T03:59:04;22.87;;;14.57;;
5752;SDS011;2901;42.140;24.760;2022-12-29T04:01:29;29.63;;;16.07;;
5752;SDS011;2901;42.140;24.760;2022-12-29T04:03:55;23.33;;;16.47;;
5752;SDS011;2901;42.140;24.760;2022-12-29T04:06:20;21.67;;;16.57;;
5752;SDS011;2901;42.140;24.760;2022-12-29T04:08:46;30.77;;;18.23;;
5752;SDS011;2901;42.140;24.760;2022-12-29T04:11:11;32.73;;;19.63;;
5752;SDS011;2901;42.140;24.760;2022-12-29T04:13:36;38.20;;;18.63;;
5752;SDS011;2901;42.140;24.760;2022-12-29T04:16:05;39.47;;;21.43;;
5752;SDS011;2901;42.140;24.760;2022-12-29T04:18:31;31.27;;;21.23;;
5752;SDS011;2901;42.140;24.760;2022-12-29T04:20:57;35.37;;;20.47;;
5752;SDS011;2901;42.140;24.760;2022-12-29T04:23:25;34.23;;;19.80;;
5752;SDS011;2901;42.140;24.760;2022-12-29T04:25:51;34.07;;;19.20;;
5752;SDS011;2901;42.140;24.760;2022-12-29T04:28:16;26.07;;;19.83;;
5752;SDS011;2901;42.140;24.760;2022-12-29T04:30:42;28.17;;;18.43;;
5752;SDS011;2901;42.140;24.760;2022-12-29T04:33:08;31.50;;;18.93;;
5752;SDS011;2901;42.140;24.760;2022-12-29T04:35:34;30.23;;;19.10;;
5752;SDS011;2901;42.140;24.760;2022-12-29T04:37:59;29.53;;;20.03;;
5752;SDS011;2901;42.140;24.760;2022-12-29T04:40:25;33.77;;;21.57;;
5752;SDS011;2901;42.140;24.760;2022-12-29T04:42:51;29.07;;;21.57;;
5752;SDS011;2901;42.140;24.760;2022-12-29T04:45:16;32.00;;;21.23;;
5752;SDS011;2901;42.140;24.760;2022-12-29T04:47:41;34.87;;;20.87;;
5752;SDS011;2901;42.140;24.760;2022-12-29T04:50:07;33.53;;;20.63;;
5752;SDS011;2901;42.140;24.760;2022-12-29T04:52:33;31.77;;;21.73;;
5752;SDS011;2901;42.140;24.760;2022-12-29T04:54:58;37.37;;;21.23;;
5752;SDS011;2901;42.140;24.760;2022-12-29T04:57:24;35.33;;;20.93;;
5752;SDS011;2901;42.140;24.760;2022-12-29T04:59:49;33.93;;;20.03;;
5752;SDS011;2901;42.140;24.760;2022-12-29T05:02:15;33.20;;;21.40;;
5752;SDS011;2901;42.140;24.760;2022-12-29T05:04:41;29.40;;;21.93;;
5752;SDS011;2901;42.140;24.760;2022-12-29T05:07:06;30.07;;;20.70;;
5752;SDS011;2901;42.140;24.760;2022-12-29T05:09:31;29.80;;;21.17;;
5752;SDS011;2901;42.140;24.760;2022-12-29T05:11:57;31.20;;;21.43;;
5752;SDS011;2901;42.140;24.760;2022-12-29T05:14:22;35.43;;;22.13;;
5752;SDS011;2901;42.140;24.760;2022-12-29T05:16:48;29.60;;;20.20;;
5752;SDS011;2901;42.140;24.760;2022-12-29T05:19:13;27.00;;;21.37;;
5752;SDS011;2901;42.140;24.760;2022-12-29T05:21:38;33.27;;;19.53;;
5752;SDS011;2901;42.140;24.760;2022-12-29T05:24:04;35.93;;;21.27;;
5752;SDS011;2901;42.140;24.760;2022-12-29T05:26:30;34.40;;;20.07;;
5752;SDS011;2901;42.140;24.760;2022-12-29T05:28:55;50.03;;;27.47;;
5752;SDS011;2901;42.140;24.760;2022-12-29T05:31:20;42.10;;;23.43;;
5752;SDS011;2901;42.140;24.760;2022-12-29T05:33:46;37.07;;;22.90;;
5752;SDS011;2901;42.140;24.760;2022-12-29T05:36:11;50.37;;;25.03;;
5752;SDS011;2901;42.140;24.760;2022-12-29T05:38:37;46.63;;;23.57;;
5752;SDS011;2901;42.140;24.760;2022-12-29T05:41:04;37.77;;;23.77;;
5752;SDS011;2901;42.140;24.760;2022-12-29T05:43:29;37.50;;;24.13;;
5752;SDS011;2901;42.140;24.760;2022-12-29T05:45:54;42.23;;;25.43;;
5752;SDS011;2901;42.140;24.760;2022-12-29T05:48:21;51.13;;;25.20;;
5752;SDS011;2901;42.140;24.760;2022-12-29T05:50:50;51.60;;;23.37;;
5752;SDS011;2901;42.140;24.760;2022-12-29T05:53:16;45.33;;;22.87;;
5752;SDS011;2901;42.140;24.760;2022-12-29T05:55:42;48.77;;;23.63;;
5752;SDS011;2901;42.140;24.760;2022-12-29T05:58:08;38.27;;;22.77;;
5752;SDS011;2901;42.140;24.760;2022-12-29T06:00:33;41.10;;;21.73;;
5752;SDS011;2901;42.140;24.760;2022-12-29T06:02:59;47.83;;;23.73;;
5752;SDS011;2901;42.140;24.760;2022-12-29T06:05:24;46.03;;;23.93;;
5752;SDS011;2901;42.140;24.760;2022-12-29T06:07:49;49.87;;;23.10;;
5752;SDS011;2901;42.140;24.760;2022-12-29T06:10:15;41.93;;;21.63;;
5752;SDS011;2901;42.140;24.760;2022-12-29T06:12:40;44.57;;;22.60;;
5752;SDS011;2901;42.140;24.760;2022-12-29T06:15:06;42.20;;;22.57;;
5752;SDS011;2901;42.140;24.760;2022-12-29T06:17:32;36.00;;;22.53;;
5752;SDS011;2901;42.140;24.760;2022-12-29T06:19:57;39.63;;;22.23;;
5752;SDS011;2901;42.140;24.760;2022-12-29T06:22:23;40.43;;;22.23;;
5752;SDS011;2901;42.140;24.760;2022-12-29T06:24:49;46.47;;;24.13;;
5752;SDS011;2901;42.140;24.760;2022-12-29T06:27:14;48.13;;;22.90;;
5752;SDS011;2901;42.140;24.760;2022-12-29T06:29:40;42.20;;;21.67;;
5752;SDS011;2901;42.140;24.760;2022-12-29T06:32:05;40.57;;;21.57;;
5752;SDS011;2901;42.140;24.760;2022-12-29T06:34:31;40.67;;;21.77;;
5752;SDS011;2901;42.140;24.760;2022-12-29T06:36:57;32.53;;;21.73;;
5752;SDS011;2901;42.140;24.760;2022-12-29T06:39:22;29.70;;;21.37;;
5752;SDS011;2901;42.140;24.760;2022-12-29T06:41:48;31.60;;;21.17;;
5752;SDS011;2901;42.140;24.760;2022-12-29T06:44:13;35.70;;;23.23;;
5752;SDS011;2901;42.140;24.760;2022-12-29T06:46:38;38.93;;;22.83;;
5752;SDS011;2901;42.140;24.760;2022-12-29T06:49:04;39.80;;;25.13;;
5752;SDS011;2901;42.140;24.760;2022-12-29T06:51:29;45.90;;;28.77;;
5752;SDS011;2901;42.140;24.760;2022-12-29T06:53:54;47.23;;;27.40;;
5752;SDS011;2901;42.140;24.760;2022-12-29T06:56:20;40.30;;;25.63;;
5752;SDS011;2901;42.140;24.760;2022-12-29T06:58:45;41.10;;;27.43;;
5752;SDS011;2901;42.140;24.760;2022-12-29T07:01:11;44.63;;;27.13;;
5752;SDS011;2901;42.140;24.760;2022-12-29T07:03:36;42.63;;;24.70;;
5752;SDS011;2901;42.140;24.760;2022-12-29T07:06:01;43.13;;;26.63;;
5752;SDS011;2901;42.140;24.760;2022-12-29T07:08:27;58.50;;;28.57;;
5752;SDS011;2901;42.140;24.760;2022-12-29T07:10:52;39.23;;;25.13;;
5752;SDS011;2901;42.140;24.760;2022-12-29T07:13:18;39.47;;;27.23;;
5752;SDS011;2901;42.140;24.760;2022-12-29T07:15:43;41.13;;;27.53;;
5752;SDS011;2901;42.140;24.760;2022-12-29T07:18:09;46.90;;;27.53;;
5752;SDS011;2901;42.140;24.760;2022-12-29T07:20:34;53.70;;;29.03;;
5752;SDS011;2901;42.140;24.760;2022-12-29T07:22:59;46.93;;;27.07;;
5752;SDS011;2901;42.140;24.760;2022-12-29T07:25:25;38.23;;;26.20;;
5752;SDS011;2901;42.140;24.760;2022-12-29T07:27:50;40.23;;;25.40;;
5752;SDS011;2901;42.140;24.760;2022-12-29T07:30:16;45.00;;;26.17;;
5752;SDS011;2901;42.140;24.760;2022-12-29T07:32:41;37.60;;;24.13;;
5752;SDS011;2901;42.140;24.760;2022-12-29T07:35:07;36.83;;;24.37;;
5752;SDS011;2901;42.140;24.760;2022-12-29T07:37:33;34.17;;;23.17;;
5752;SDS011;2901;42.140;24.760;2022-12-29T07:39:59;38.40;;;23.60;;
5752;SDS011;2901;42.140;24.760;2022-12-29T07:42:25;30.57;;;21.87;;
5752;SDS011;2901;42.140;24.760;2022-12-29T07:44:51;32.23;;;22.77;;
5752;SDS011;2901;42.140;24.760;2022-12-29T07:47:16;30.13;;;21.60;;
5752;SDS011;2901;42.140;24.760;2022-12-29T07:49:42;36.87;;;24.53;;
5752;SDS011;2901;42.140;24.760;2022-12-29T07:52:07;34.47;;;23.57;;
5752;SDS011;2901;42.140;24.760;2022-12-29T07:54:32;62.07;;;25.73;;
5752;SDS011;2901;42.140;24.760;2022-12-29T07:56:58;42.63;;;25.93;;
5752;SDS011;2901;42.140;24.760;2022-12-29T07:59:25;40.33;;;24.20;;
5752;SDS011;2901;42.140;24.760;2022-12-29T08:01:50;42.03;;;24.00;;
5752;SDS011;2901;42.140;24.760;2022-12-29T08:04:16;35.87;;;23.30;;
5752;SDS011;2901;42.140;24.760;2022-12-29T08:06:41;36.27;;;24.43;;
5752;SDS011;2901;42.140;24.760;2022-12-29T08:09:07;32.37;;;24.03;;
5752;SDS011;2901;42.140;24.760;2022-12-29T08:11:33;33.30;;;23.47;;
5752;SDS011;2901;42.140;24.760;2022-12-29T08:13:58;33.70;;;22.47;;
5752;SDS011;2901;42.140;24.760;2022-12-29T08:16:24;37.80;;;22.73;;
5752;SDS011;2901;42.140;24.760;2022-12-29T08:18:49;36.67;;;21.60;;
5752;SDS011;2901;42.140;24.760;2022-12-29T08:21:14;36.00;;;22.60;;
5752;SDS011;2901;42.140;24.760;2022-12-29T08:23:40;29.77;;;20.60;;
5752;SDS011;2901;42.140;24.760;2022-12-29T08:26:05;36.63;;;23.27;;
5752;SDS011;2901;42.140;24.760;2022-12-29T08:28:31;32.17;;;20.47;;
5752;SDS011;2901;42.140;24.760;2022-12-29T08:30:58;32.00;;;23.07;;
5752;SDS011;2901;42.140;24.760;2022-12-29T08:33:27;32.53;;;21.17;;
5752;SDS011;2901;42.140;24.760;2022-12-29T08:35:52;31.00;;;21.13;;
5752;SDS011;2901;42.140;24.760;2022-12-29T08:38:24;29.33;;;20.50;;
5752;SDS011;2901;42.140;24.760;2022-12-29T08:40:50;30.43;;;21.00;;
5752;SDS011;2901;42.140;24.760;2022-12-29T08:43:16;34.80;;;21.40;;
5752;SDS011;2901;42.140;24.760;2022-12-29T08:45:41;26.83;;;20.53;;
5752;SDS011;2901;42.140;24.760;2022-12-29T08:48:07;30.97;;;21.13;;
5752;SDS011;2901;42.140;24.760;2022-12-29T08:50:32;39.13;;;22.03;;
5752;SDS011;2901;42.140;24.760;2022-12-29T08:52:58;34.30;;;21.33;;
5752;SDS011;2901;42.140;24.760;2022-12-29T08:55:23;30.77;;;19.63;;
5752;SDS011;2901;42.140;24.760;2022-12-29T08:57:48;28.58;;;20.08;;
5752;SDS011;2901;42.140;24.760;2022-12-29T09:00:14;29.20;;;20.63;;
5752;SDS011;2901;42.140;24.760;2022-12-29T09:02:40;29.63;;;21.55;;
5752;SDS011;2901;42.140;24.760;2022-12-29T09:05:05;28.58;;;19.33;;
5752;SDS011;2901;42.140;24.760;2022-12-29T09:07:31;22.95;;;18.42;;
5752;SDS011;2901;42.140;24.760;2022-12-29T09:09:56;26.27;;;18.48;;
5752;SDS011;2901;42.140;24.760;2022-12-29T09:12:21;23.42;;;17.00;;
5752;SDS011;2901;42.140;24.760;2022-12-29T09:14:47;22.52;;;16.88;;
5752;SDS011;2901;42.140;24.760;2022-12-29T09:17:12;25.95;;;17.98;;
5752;SDS011;2901;42.140;24.760;2022-12-29T09:19:56;22.33;;;17.17;;
5752;SDS011;2901;42.140;24.760;2022-12-29T09:22:21;27.13;;;18.08;;
5752;SDS011;2901;42.140;24.760;2022-12-29T09:24:47;24.50;;;16.65;;
5752;SDS011;2901;42.140;24.760;2022-12-29T09:27:12;21.90;;;17.52;;
5752;SDS011;2901;42.140;24.760;2022-12-29T09:29:37;20.52;;;16.50;;
5752;SDS011;2901;42.140;24.760;2022-12-29T09:32:03;25.58;;;16.85;;
5752;SDS011;2901;42.140;24.760;2022-12-29T09:34:28;27.30;;;18.58;;
5752;SDS011;2901;42.140;24.760;2022-12-29T09:36:54;25.67;;;18.13;;
5752;SDS011;2901;42.140;24.760;2022-12-29T09:39:21;20.50;;;16.45;;
5752;SDS011;2901;42.140;24.760;2022-12-29T09:47:44;25.48;;;18.00;;
5752;SDS011;2901;42.140;24.760;2022-12-29T09:52:58;28.58;;;18.33;;
5752;SDS011;2901;42.140;24.760;2022-12-29T09:55:38;21.35;;;17.30;;
5752;SDS011;2901;42.140;24.760;2022-12-29T09:58:12;27.98;;;17.70;;
5752;SDS011;2901;42.140;24.760;2022-12-29T10:00:40;21.00;;;15.93;;
5752;SDS011;2901;42.140;24.760;2022-12-29T10:03:22;22.75;;;16.52;;
5752;SDS011;2901;42.140;24.760;2022-12-29T10:05:56;21.73;;;16.48;;
5752;SDS011;2901;42.140;24.760;2022-12-29T10:08:42;26.77;;;17.70;;
5752;SDS011;2901;42.140;24.760;2022-12-29T10:17:27;25.83;;;16.88;;
5752;SDS011;2901;42.140;24.760;2022-12-29T10:25:31;33.28;;;16.80;;
5752;SDS011;2901;42.140;24.760;2022-12-29T10:28:03;23.45;;;16.25;;
5752;SDS011;2901;42.140;24.760;2022-12-29T10:30:34;26.08;;;17.67;;
5752;SDS011;2901;42.140;24.760;2022-12-29T10:33:07;28.20;;;17.58;;
5752;SDS011;2901;42.140;24.760;2022-12-29T10:35:40;26.58;;;16.40;;
5752;SDS011;2901;42.140;24.760;2022-12-29T10:38:22;22.92;;;16.80;;
5752;SDS011;2901;42.140;24.760;2022-12-29T10:46:08;21.73;;;16.40;;
5752;SDS011;2901;42.140;24.760;2022-12-29T10:48:37;27.42;;;16.80;;
5752;SDS011;2901;42.140;24.760;2022-12-29T10:51:04;27.15;;;17.45;;
5752;SDS011;2901;42.140;24.760;2022-12-29T10:53:42;28.58;;;17.63;;
5752;SDS011;2901;42.140;24.760;2022-12-29T10:56:15;34.50;;;18.67;;
5752;SDS011;2901;42.140;24.760;2022-12-29T10:59:04;30.20;;;17.90;;
5752;SDS011;2901;42.140;24.760;2022-12-29T11:01:39;29.90;;;17.70;;
5752;SDS011;2901;42.140;24.760;2022-12-29T11:07:23;25.63;;;16.40;;
5752;SDS011;2901;42.140;24.760;2022-12-29T11:09:50;27.13;;;16.80;;
5752;SDS011;2901;42.140;24.760;2022-12-29T11:12:29;27.48;;;17.92;;
5752;SDS011;2901;42.140;24.760;2022-12-29T11:17:46;23.90;;;16.23;;
5752;SDS011;2901;42.140;24.760;2022-12-29T11:20:19;32.13;;;19.48;;
5752;SDS011;2901;42.140;24.760;2022-12-29T11:23:04;32.03;;;18.33;;
5752;SDS011;2901;42.140;24.760;2022-12-29T11:25:46;28.23;;;18.55;;
5752;SDS011;2901;42.140;24.760;2022-12-29T11:28:37;31.70;;;18.65;;
5752;SDS011;2901;42.140;24.760;2022-12-29T11:31:04;29.17;;;18.55;;
5752;SDS011;2901;42.140;24.760;2022-12-29T11:33:32;41.42;;;21.52;;
5752;SDS011;2901;42.140;24.760;2022-12-29T11:36:04;28.73;;;18.25;;
5752;SDS011;2901;42.140;24.760;2022-12-29T11:41:25;26.58;;;19.13;;
5752;SDS011;2901;42.140;24.760;2022-12-29T11:43:56;22.27;;;18.13;;
5752;SDS011;2901;42.140;24.760;2022-12-29T11:46:27;26.35;;;17.30;;
5752;SDS011;2901;42.140;24.760;2022-12-29T11:48:56;33.88;;;18.20;;
5752;SDS011;2901;42.140;24.760;2022-12-29T11:51:28;29.35;;;20.10;;
5752;SDS011;2901;42.140;24.760;2022-12-29T11:54:00;29.67;;;19.30;;
5752;SDS011;2901;42.140;24.760;2022-12-29T11:56:45;25.92;;;20.25;;
5752;SDS011;2901;42.140;24.760;2022-12-29T12:01:55;24.88;;;18.70;;
5752;SDS011;2901;42.140;24.760;2022-12-29T12:04:26;31.67;;;19.50;;
5752;SDS011;2901;42.140;24.760;2022-12-29T12:09:53;26.90;;;20.00;;
5752;SDS011;2901;42.140;24.760;2022-12-29T12:15:13;31.50;;;20.35;;
5752;SDS011;2901;42.140;24.760;2022-12-29T12:26:18;28.38;;;18.75;;
5752;SDS011;2901;42.140;24.760;2022-12-29T12:29:11;39.45;;;22.63;;
5752;SDS011;2901;42.140;24.760;2022-12-29T12:34:38;34.65;;;19.90;;
5752;SDS011;2901;42.140;24.760;2022-12-29T12:58:52;25.20;;;19.92;;
5752;SDS011;2901;42.140;24.760;2022-12-29T13:01:29;24.77;;;19.00;;
5752;SDS011;2901;42.140;24.760;2022-12-29T13:07:28;28.25;;;19.77;;
5752;SDS011;2901;42.140;24.760;2022-12-29T13:19:14;34.33;;;21.95;;
5752;SDS011;2901;42.140;24.760;2022-12-29T13:22:08;29.85;;;20.15;;
5752;SDS011;2901;42.140;24.760;2022-12-29T13:27:34;30.55;;;19.58;;
5752;SDS011;2901;42.140;24.760;2022-12-29T13:30:17;32.00;;;20.00;;
5752;SDS011;2901;42.140;24.760;2022-12-29T13:35:32;28.40;;;17.42;;
5752;SDS011;2901;42.140;24.760;2022-12-29T13:38:02;27.75;;;19.38;;
5752;SDS011;2901;42.140;24.760;2022-12-29T13:40:34;27.77;;;19.58;;
5752;SDS011;2901;42.140;24.760;2022-12-29T13:43:05;35.50;;;22.13;;
5752;SDS011;2901;42.140;24.760;2022-12-29T13:45:31;25.23;;;18.20;;
5752;SDS011;2901;42.140;24.760;2022-12-29T13:51:05;23.85;;;17.02;;
5752;SDS011;2901;42.140;24.760;2022-12-29T13:56:11;22.83;;;17.92;;
5752;SDS011;2901;42.140;24.760;2022-12-29T14:01:40;40.88;;;21.52;;
5752;SDS011;2901;42.140;24.760;2022-12-29T14:04:13;28.95;;;21.77;;
5752;SDS011;2901;42.140;24.760;2022-12-29T14:06:45;30.92;;;21.35;;
5752;SDS011;2901;42.140;24.760;2022-12-29T14:09:42;31.13;;;19.65;;
5752;SDS011;2901;42.140;24.760;2022-12-29T14:12:35;23.90;;;20.20;;
5752;SDS011;2901;42.140;24.760;2022-12-29T14:17:33;33.53;;;20.85;;
5752;SDS011;2901;42.140;24.760;2022-12-29T14:19:59;32.10;;;21.02;;
5752;SDS011;2901;42.140;24.760;2022-12-29T14:22:25;27.52;;;20.15;;
5752;SDS011;2901;42.140;24.760;2022-12-29T14:24:52;24.27;;;19.58;;
5752;SDS011;2901;42.140;24.760;2022-12-29T14:29:52;35.65;;;20.55;;
5752;SDS011;2901;42.140;24.760;2022-12-29T14:34:55;33.35;;;20.13;;
5752;SDS011;2901;42.140;24.760;2022-12-29T14:42:37;34.85;;;22.30;;
5752;SDS011;2901;42.140;24.760;2022-12-29T14:45:06;29.38;;;22.48;;
5752;SDS011;2901;42.140;24.760;2022-12-29T14:47:52;38.78;;;21.50;;
5752;SDS011;2901;42.140;24.760;2022-12-29T14:56:15;32.70;;;21.42;;
5752;SDS011;2901;42.140;24.760;2022-12-29T15:01:24;32.13;;;21.92;;
5752;SDS011;2901;42.140;24.760;2022-12-29T15:03:51;34.80;;;23.27;;
5752;SDS011;2901;42.140;24.760;2022-12-29T15:06:19;49.67;;;23.95;;
5752;SDS011;2901;42.140;24.760;2022-12-29T15:08:51;38.45;;;24.40;;
5752;SDS011;2901;42.140;24.760;2022-12-29T15:11:21;36.65;;;22.75;;
5752;SDS011;2901;42.140;24.760;2022-12-29T15:13:49;39.58;;;23.33;;
5752;SDS011;2901;42.140;24.760;2022-12-29T15:18:48;46.10;;;28.60;;
5752;SDS011;2901;42.140;24.760;2022-12-29T15:21:14;48.95;;;29.17;;
5752;SDS011;2901;42.140;24.760;2022-12-29T15:23:41;50.03;;;25.75;;
5752;SDS011;2901;42.140;24.760;2022-12-29T15:26:09;46.17;;;30.20;;
5752;SDS011;2901;42.140;24.760;2022-12-29T15:28:45;66.18;;;39.35;;
5752;SDS011;2901;42.140;24.760;2022-12-29T15:31:12;61.03;;;37.30;;
5752;SDS011;2901;42.140;24.760;2022-12-29T15:33:50;71.40;;;38.00;;
5752;SDS011;2901;42.140;24.760;2022-12-29T15:36:21;73.50;;;37.05;;
5752;SDS011;2901;42.140;24.760;2022-12-29T15:38:48;90.10;;;50.50;;
5752;SDS011;2901;42.140;24.760;2022-12-29T15:44:37;79.40;;;44.50;;
5752;SDS011;2901;42.140;24.760;2022-12-29T15:49:37;73.28;;;47.13;;
5752;SDS011;2901;42.140;24.760;2022-12-29T15:52:06;67.65;;;40.20;;
5752;SDS011;2901;42.140;24.760;2022-12-29T15:54:33;84.30;;;41.45;;
5752;SDS011;2901;42.140;24.760;2022-12-29T15:56:59;75.75;;;40.15;;
5752;SDS011;2901;42.140;24.760;2022-12-29T15:59:31;72.13;;;42.75;;
5752;SDS011;2901;42.140;24.760;2022-12-29T16:01:59;89.05;;;44.95;;
5752;SDS011;2901;42.140;24.760;2022-12-29T16:04:27;79.93;;;42.03;;
5752;SDS011;2901;42.140;24.760;2022-12-29T16:07:02;70.28;;;37.63;;
5752;SDS011;2901;42.140;24.760;2022-12-29T16:11:57;77.22;;;40.33;;
5752;SDS011;2901;42.140;24.760;2022-12-29T16:14:32;74.68;;;41.15;;
5752;SDS011;2901;42.140;24.760;2022-12-29T16:17:12;74.88;;;40.15;;
5752;SDS011;2901;42.140;24.760;2022-12-29T16:19:41;88.15;;;43.15;;
5752;SDS011;2901;42.140;24.760;2022-12-29T16:25:00;79.45;;;45.22;;
5752;SDS011;2901;42.140;24.760;2022-12-29T16:27:34;81.07;;;44.78;;
5752;SDS011;2901;42.140;24.760;2022-12-29T16:30:03;74.57;;;43.80;;
5752;SDS011;2901;42.140;24.760;2022-12-29T16:32:32;79.32;;;50.67;;
5752;SDS011;2901;42.140;24.760;2022-12-29T16:35:12;97.30;;;52.53;;
5752;SDS011;2901;42.140;24.760;2022-12-29T16:38:06;90.13;;;52.58;;
5752;SDS011;2901;42.140;24.760;2022-12-29T16:40:38;93.18;;;47.75;;
5752;SDS011;2901;42.140;24.760;2022-12-29T16:43:34;97.32;;;49.92;;
5752;SDS011;2901;42.140;24.760;2022-12-29T16:46:16;113.63;;;56.75;;
5752;SDS011;2901;42.140;24.760;2022-12-29T16:48:49;392.02;;;158.98;;
5752;SDS011;2901;42.140;24.760;2022-12-29T16:51:20;575.28;;;278.38;;
5752;SDS011;2901;42.140;24.760;2022-12-29T16:53:52;264.00;;;109.20;;
5752;SDS011;2901;42.140;24.760;2022-12-29T16:56:20;151.25;;;72.28;;
5752;SDS011;2901;42.140;24.760;2022-12-29T16:58:49;120.05;;;58.90;;
5752;SDS011;2901;42.140;24.760;2022-12-29T17:01:19;114.70;;;58.22;;
5752;SDS011;2901;42.140;24.760;2022-12-29T17:03:56;114.57;;;54.55;;
5752;SDS011;2901;42.140;24.760;2022-12-29T17:06:25;119.00;;;55.15;;
5752;SDS011;2901;42.140;24.760;2022-12-29T17:08:51;111.40;;;56.83;;
5752;SDS011;2901;42.140;24.760;2022-12-29T17:11:21;126.65;;;58.47;;
5752;SDS011;2901;42.140;24.760;2022-12-29T17:17:02;130.68;;;56.75;;
5752;SDS011;2901;42.140;24.760;2022-12-29T17:19:30;123.30;;;56.72;;
5752;SDS011;2901;42.140;24.760;2022-12-29T17:21:58;118.47;;;54.33;;
5752;SDS011;2901;42.140;24.760;2022-12-29T17:24:24;105.82;;;55.88;;
5752;SDS011;2901;42.140;24.760;2022-12-29T17:26:51;122.40;;;56.28;;
5752;SDS011;2901;42.140;24.760;2022-12-29T17:29:33;124.15;;;57.72;;
5752;SDS011;2901;42.140;24.760;2022-12-29T17:32:01;136.02;;;59.33;;
5752;SDS011;2901;42.140;24.760;2022-12-29T17:34:28;120.45;;;58.47;;
5752;SDS011;2901;42.140;24.760;2022-12-29T17:36:54;128.77;;;56.38;;
5752;SDS011;2901;42.140;24.760;2022-12-29T17:39:19;121.30;;;61.10;;
5752;SDS011;2901;42.140;24.760;2022-12-29T17:41:45;127.65;;;56.80;;